sensor_id;sensor_type;location;lat;lon;timestamp;P1;durP1;ratioP1;P2;durP2;ratioP2
48685;SDS011;34485;51.536;3.816;2023-08-17T00:01:25;4.78;;;3.33;;
48685;SDS011;34485;51.536;3.816;2023-08-17T00:03:50;4.47;;;2.83;;
48685;SDS011;34485;51.536;3.816;2023-08-17T00:06:16;4.63;;;3.27;;
48685;SDS011;34485;51.536;3.816;2023-08-17T00:08:42;3.63;;;2.63;;
48685;SDS011;34485;51.536;3.816;2023-08-17T00:11:08;3.83;;;2.50;;
48685;SDS011;34485;51.536;3.816;2023-08-17T00:13:33;6.00;;;3.00;;
48685;SDS011;34485;51.536;3.816;2023-08-17T00:15:59;4.85;;;2.90;;
48685;SDS011;34485;51.536;3.816;2023-08-17T00:18:25;3.07;;;2.13;;
48685;SDS011;34485;51.536;3.816;2023-08-17T00:20:51;4.35;;;2.80;;
48685;SDS011;34485;51.536;3.816;2023-08-17T00:23:16;4.07;;;2.80;;
48685;SDS011;34485;51.536;3.816;2023-08-17T00:25:42;3.50;;;2.63;;
48685;SDS011;34485;51.536;3.816;2023-08-17T00:28:08;6.67;;;2.30;;
48685;SDS011;34485;51.536;3.816;2023-08-17T00:30:33;3.58;;;2.22;;
48685;SDS011;34485;51.536;3.816;2023-08-17T00:33:02;6.53;;;2.20;;
48685;SDS011;34485;51.536;3.816;2023-08-17T00:35:28;3.40;;;3.10;;
48685;SDS011;34485;51.536;3.816;2023-08-17T00:37:54;2.53;;;2.33;;
48685;SDS011;34485;51.536;3.816;2023-08-17T00:40:20;2.93;;;2.73;;
48685;SDS011;34485;51.536;3.816;2023-08-17T00:42:45;3.05;;;2.63;;
48685;SDS011;34485;51.536;3.816;2023-08-17T00:45:11;3.23;;;2.40;;
48685;SDS011;34485;51.536;3.816;2023-08-17T00:47:37;6.73;;;2.63;;
48685;SDS011;34485;51.536;3.816;2023-08-17T00:50:03;5.03;;;2.67;;
48685;SDS011;34485;51.536;3.816;2023-08-17T00:52:30;2.80;;;2.60;;
48685;SDS011;34485;51.536;3.816;2023-08-17T00:54:57;2.65;;;2.42;;
48685;SDS011;34485;51.536;3.816;2023-08-17T00:57:23;6.20;;;2.33;;
48685;SDS011;34485;51.536;3.816;2023-08-17T00:59:49;6.18;;;2.92;;
48685;SDS011;34485;51.536;3.816;2023-08-17T01:02:15;4.55;;;3.22;;
48685;SDS011;34485;51.536;3.816;2023-08-17T01:04:43;3.22;;;2.53;;
48685;SDS011;34485;51.536;3.816;2023-08-17T01:07:08;3.97;;;3.60;;
48685;SDS011;34485;51.536;3.816;2023-08-17T01:09:35;4.63;;;3.03;;
48685;SDS011;34485;51.536;3.816;2023-08-17T01:14:43;4.57;;;2.20;;
48685;SDS011;34485;51.536;3.816;2023-08-17T01:17:33;3.80;;;3.10;;
48685;SDS011;34485;51.536;3.816;2023-08-17T01:20:07;5.40;;;2.72;;
48685;SDS011;34485;51.536;3.816;2023-08-17T01:22:37;6.25;;;3.38;;
48685;SDS011;34485;51.536;3.816;2023-08-17T01:25:07;5.07;;;2.75;;
48685;SDS011;34485;51.536;3.816;2023-08-17T01:27:38;7.67;;;3.10;;
48685;SDS011;34485;51.536;3.816;2023-08-17T01:30:07;4.03;;;2.67;;
48685;SDS011;34485;51.536;3.816;2023-08-17T01:32:41;6.10;;;3.25;;
48685;SDS011;34485;51.536;3.816;2023-08-17T01:38:07;6.05;;;2.75;;
48685;SDS011;34485;51.536;3.816;2023-08-17T01:40:34;3.80;;;2.70;;
48685;SDS011;34485;51.536;3.816;2023-08-17T01:43:03;5.03;;;3.10;;
48685;SDS011;34485;51.536;3.816;2023-08-17T01:45:29;3.47;;;2.92;;
48685;SDS011;34485;51.536;3.816;2023-08-17T01:47:55;3.27;;;2.93;;
48685;SDS011;34485;51.536;3.816;2023-08-17T01:50:21;5.13;;;2.63;;
48685;SDS011;34485;51.536;3.816;2023-08-17T01:52:46;4.07;;;3.40;;
48685;SDS011;34485;51.536;3.816;2023-08-17T01:55:12;3.65;;;2.38;;
48685;SDS011;34485;51.536;3.816;2023-08-17T01:57:38;10.60;;;3.10;;
48685;SDS011;34485;51.536;3.816;2023-08-17T02:00:04;7.85;;;2.80;;
48685;SDS011;34485;51.536;3.816;2023-08-17T02:02:30;4.07;;;2.53;;
48685;SDS011;34485;51.536;3.816;2023-08-17T02:04:56;7.40;;;2.77;;
48685;SDS011;34485;51.536;3.816;2023-08-17T02:07:22;4.25;;;2.92;;
48685;SDS011;34485;51.536;3.816;2023-08-17T02:09:47;4.20;;;2.63;;
48685;SDS011;34485;51.536;3.816;2023-08-17T02:12:13;3.30;;;2.40;;
48685;SDS011;34485;51.536;3.816;2023-08-17T02:14:38;7.28;;;2.40;;
48685;SDS011;34485;51.536;3.816;2023-08-17T02:17:04;4.07;;;2.33;;
48685;SDS011;34485;51.536;3.816;2023-08-17T02:19:30;6.55;;;2.42;;
48685;SDS011;34485;51.536;3.816;2023-08-17T02:21:57;2.42;;;2.33;;
48685;SDS011;34485;51.536;3.816;2023-08-17T02:24:23;3.47;;;3.17;;
48685;SDS011;34485;51.536;3.816;2023-08-17T02:26:49;4.82;;;2.17;;
48685;SDS011;34485;51.536;3.816;2023-08-17T02:29:15;4.07;;;2.60;;
48685;SDS011;34485;51.536;3.816;2023-08-17T02:31:40;3.03;;;2.80;;
48685;SDS011;34485;51.536;3.816;2023-08-17T02:34:06;2.13;;;1.83;;
48685;SDS011;34485;51.536;3.816;2023-08-17T02:36:32;3.47;;;2.30;;
48685;SDS011;34485;51.536;3.816;2023-08-17T02:38:58;4.70;;;2.83;;
48685;SDS011;34485;51.536;3.816;2023-08-17T02:41:24;7.17;;;2.50;;
48685;SDS011;34485;51.536;3.816;2023-08-17T02:43:49;2.97;;;2.47;;
48685;SDS011;34485;51.536;3.816;2023-08-17T02:46:15;2.63;;;2.07;;
48685;SDS011;34485;51.536;3.816;2023-08-17T02:48:40;6.43;;;2.33;;
48685;SDS011;34485;51.536;3.816;2023-08-17T02:51:06;6.03;;;3.08;;
48685;SDS011;34485;51.536;3.816;2023-08-17T02:53:32;3.03;;;2.27;;
48685;SDS011;34485;51.536;3.816;2023-08-17T02:55:57;4.80;;;2.27;;
48685;SDS011;34485;51.536;3.816;2023-08-17T02:58:23;4.60;;;2.28;;
48685;SDS011;34485;51.536;3.816;2023-08-17T03:00:50;3.20;;;2.53;;
48685;SDS011;34485;51.536;3.816;2023-08-17T03:03:17;4.28;;;2.42;;
48685;SDS011;34485;51.536;3.816;2023-08-17T03:05:42;4.90;;;2.60;;
48685;SDS011;34485;51.536;3.816;2023-08-17T03:08:08;2.70;;;2.47;;
48685;SDS011;34485;51.536;3.816;2023-08-17T03:10:33;3.23;;;3.03;;
48685;SDS011;34485;51.536;3.816;2023-08-17T03:12:59;2.60;;;2.03;;
48685;SDS011;34485;51.536;3.816;2023-08-17T03:15:25;2.47;;;2.30;;
48685;SDS011;34485;51.536;3.816;2023-08-17T03:17:50;4.47;;;2.40;;
48685;SDS011;34485;51.536;3.816;2023-08-17T03:20:16;5.10;;;3.25;;
48685;SDS011;34485;51.536;3.816;2023-08-17T03:22:41;4.67;;;2.00;;
48685;SDS011;34485;51.536;3.816;2023-08-17T03:25:07;4.17;;;2.87;;
48685;SDS011;34485;51.536;3.816;2023-08-17T03:27:33;2.40;;;2.20;;
48685;SDS011;34485;51.536;3.816;2023-08-17T03:29:59;3.53;;;3.22;;
48685;SDS011;34485;51.536;3.816;2023-08-17T03:32:25;3.57;;;2.93;;
48685;SDS011;34485;51.536;3.816;2023-08-17T03:34:50;9.77;;;2.97;;
48685;SDS011;34485;51.536;3.816;2023-08-17T03:37:16;5.97;;;3.70;;
48685;SDS011;34485;51.536;3.816;2023-08-17T03:39:41;3.10;;;2.53;;
48685;SDS011;34485;51.536;3.816;2023-08-17T03:42:07;4.30;;;3.03;;
48685;SDS011;34485;51.536;3.816;2023-08-17T03:44:33;3.57;;;2.47;;
48685;SDS011;34485;51.536;3.816;2023-08-17T03:46:58;7.82;;;3.10;;
48685;SDS011;34485;51.536;3.816;2023-08-17T03:49:24;4.90;;;3.03;;
48685;SDS011;34485;51.536;3.816;2023-08-17T03:51:49;7.17;;;4.53;;
48685;SDS011;34485;51.536;3.816;2023-08-17T03:54:16;5.18;;;2.60;;
48685;SDS011;34485;51.536;3.816;2023-08-17T03:56:42;4.38;;;3.55;;
48685;SDS011;34485;51.536;3.816;2023-08-17T03:59:08;4.27;;;2.23;;
48685;SDS011;34485;51.536;3.816;2023-08-17T04:01:33;2.93;;;2.43;;
48685;SDS011;34485;51.536;3.816;2023-08-17T04:03:59;6.70;;;2.42;;
48685;SDS011;34485;51.536;3.816;2023-08-17T04:06:24;3.50;;;3.23;;
48685;SDS011;34485;51.536;3.816;2023-08-17T04:08:50;6.83;;;2.77;;
48685;SDS011;34485;51.536;3.816;2023-08-17T04:11:16;3.78;;;3.05;;
48685;SDS011;34485;51.536;3.816;2023-08-17T04:13:41;4.30;;;3.53;;
48685;SDS011;34485;51.536;3.816;2023-08-17T04:16:07;3.15;;;2.90;;
48685;SDS011;34485;51.536;3.816;2023-08-17T04:18:32;3.40;;;2.63;;
48685;SDS011;34485;51.536;3.816;2023-08-17T04:20:58;4.70;;;3.17;;
48685;SDS011;34485;51.536;3.816;2023-08-17T04:23:23;3.60;;;2.85;;
48685;SDS011;34485;51.536;3.816;2023-08-17T04:25:49;5.80;;;2.80;;
48685;SDS011;34485;51.536;3.816;2023-08-17T04:28:15;2.63;;;2.17;;
48685;SDS011;34485;51.536;3.816;2023-08-17T04:30:40;5.47;;;2.63;;
48685;SDS011;34485;51.536;3.816;2023-08-17T04:33:06;6.10;;;3.47;;
48685;SDS011;34485;51.536;3.816;2023-08-17T04:35:32;3.40;;;2.88;;
48685;SDS011;34485;51.536;3.816;2023-08-17T04:37:58;7.83;;;3.20;;
48685;SDS011;34485;51.536;3.816;2023-08-17T04:40:24;6.20;;;3.23;;
48685;SDS011;34485;51.536;3.816;2023-08-17T04:42:49;4.80;;;2.67;;
48685;SDS011;34485;51.536;3.816;2023-08-17T04:45:15;8.67;;;3.23;;
48685;SDS011;34485;51.536;3.816;2023-08-17T04:47:40;2.70;;;2.50;;
48685;SDS011;34485;51.536;3.816;2023-08-17T04:50:06;8.33;;;2.67;;
48685;SDS011;34485;51.536;3.816;2023-08-17T04:52:32;2.60;;;2.22;;
48685;SDS011;34485;51.536;3.816;2023-08-17T04:54:57;4.83;;;2.90;;
48685;SDS011;34485;51.536;3.816;2023-08-17T04:57:23;11.35;;;3.13;;
48685;SDS011;34485;51.536;3.816;2023-08-17T04:59:49;4.27;;;2.23;;
48685;SDS011;34485;51.536;3.816;2023-08-17T05:02:15;4.10;;;2.97;;
48685;SDS011;34485;51.536;3.816;2023-08-17T05:04:41;12.13;;;2.57;;
48685;SDS011;34485;51.536;3.816;2023-08-17T05:07:07;3.28;;;2.72;;
48685;SDS011;34485;51.536;3.816;2023-08-17T05:09:33;4.32;;;2.75;;
48685;SDS011;34485;51.536;3.816;2023-08-17T05:11:58;2.93;;;2.50;;
48685;SDS011;34485;51.536;3.816;2023-08-17T05:14:24;4.60;;;2.67;;
48685;SDS011;34485;51.536;3.816;2023-08-17T05:16:49;5.63;;;2.78;;
48685;SDS011;34485;51.536;3.816;2023-08-17T05:19:15;7.90;;;2.63;;
48685;SDS011;34485;51.536;3.816;2023-08-17T05:21:41;2.78;;;2.22;;
48685;SDS011;34485;51.536;3.816;2023-08-17T05:24:06;4.70;;;2.60;;
48685;SDS011;34485;51.536;3.816;2023-08-17T05:26:32;8.57;;;2.47;;
48685;SDS011;34485;51.536;3.816;2023-08-17T05:28:57;2.70;;;2.50;;
48685;SDS011;34485;51.536;3.816;2023-08-17T05:31:23;5.67;;;2.00;;
48685;SDS011;34485;51.536;3.816;2023-08-17T05:33:49;5.40;;;3.00;;
48685;SDS011;34485;51.536;3.816;2023-08-17T05:36:14;5.97;;;2.50;;
48685;SDS011;34485;51.536;3.816;2023-08-17T05:38:40;8.18;;;3.50;;
48685;SDS011;34485;51.536;3.816;2023-08-17T05:41:05;4.30;;;2.00;;
48685;SDS011;34485;51.536;3.816;2023-08-17T05:43:31;2.83;;;2.55;;
48685;SDS011;34485;51.536;3.816;2023-08-17T05:45:57;5.50;;;2.53;;
48685;SDS011;34485;51.536;3.816;2023-08-17T05:48:26;3.17;;;2.25;;
48685;SDS011;34485;51.536;3.816;2023-08-17T05:50:52;3.40;;;2.93;;
48685;SDS011;34485;51.536;3.816;2023-08-17T05:53:17;4.97;;;2.10;;
48685;SDS011;34485;51.536;3.816;2023-08-17T05:55:43;5.53;;;2.87;;
48685;SDS011;34485;51.536;3.816;2023-08-17T05:58:08;2.63;;;2.53;;
48685;SDS011;34485;51.536;3.816;2023-08-17T06:00:34;3.73;;;1.93;;
48685;SDS011;34485;51.536;3.816;2023-08-17T06:03:00;1.75;;;1.63;;
48685;SDS011;34485;51.536;3.816;2023-08-17T06:05:26;2.17;;;1.97;;
48685;SDS011;34485;51.536;3.816;2023-08-17T06:07:53;2.65;;;1.63;;
48685;SDS011;34485;51.536;3.816;2023-08-17T06:10:19;4.18;;;2.08;;
48685;SDS011;34485;51.536;3.816;2023-08-17T06:12:45;1.65;;;1.55;;
48685;SDS011;34485;51.536;3.816;2023-08-17T06:15:11;3.27;;;2.07;;
48685;SDS011;34485;51.536;3.816;2023-08-17T06:17:38;2.28;;;2.08;;
48685;SDS011;34485;51.536;3.816;2023-08-17T06:20:04;5.60;;;2.00;;
48685;SDS011;34485;51.536;3.816;2023-08-17T06:22:30;2.55;;;1.55;;
48685;SDS011;34485;51.536;3.816;2023-08-17T06:24:56;6.70;;;2.47;;
48685;SDS011;34485;51.536;3.816;2023-08-17T06:27:21;2.47;;;2.00;;
48685;SDS011;34485;51.536;3.816;2023-08-17T06:29:47;3.93;;;2.67;;
48685;SDS011;34485;51.536;3.816;2023-08-17T06:32:12;5.00;;;2.80;;
48685;SDS011;34485;51.536;3.816;2023-08-17T06:34:38;2.40;;;1.85;;
48685;SDS011;34485;51.536;3.816;2023-08-17T06:37:05;4.53;;;2.20;;
48685;SDS011;34485;51.536;3.816;2023-08-17T06:39:31;7.97;;;2.78;;
48685;SDS011;34485;51.536;3.816;2023-08-17T06:41:56;6.47;;;2.60;;
48685;SDS011;34485;51.536;3.816;2023-08-17T06:44:22;3.15;;;2.72;;
48685;SDS011;34485;51.536;3.816;2023-08-17T06:46:47;5.00;;;1.90;;
48685;SDS011;34485;51.536;3.816;2023-08-17T06:49:13;2.90;;;1.73;;
48685;SDS011;34485;51.536;3.816;2023-08-17T06:51:39;3.20;;;1.70;;
48685;SDS011;34485;51.536;3.816;2023-08-17T06:54:05;3.20;;;2.30;;
48685;SDS011;34485;51.536;3.816;2023-08-17T06:56:32;4.32;;;2.00;;
48685;SDS011;34485;51.536;3.816;2023-08-17T06:58:58;2.67;;;2.00;;
48685;SDS011;34485;51.536;3.816;2023-08-17T07:01:23;3.53;;;2.10;;
48685;SDS011;34485;51.536;3.816;2023-08-17T07:03:49;4.30;;;1.83;;
48685;SDS011;34485;51.536;3.816;2023-08-17T07:06:15;5.10;;;1.95;;
48685;SDS011;34485;51.536;3.816;2023-08-17T07:08:40;5.07;;;2.33;;
48685;SDS011;34485;51.536;3.816;2023-08-17T07:11:06;3.33;;;2.03;;
48685;SDS011;34485;51.536;3.816;2023-08-17T07:13:33;3.08;;;2.10;;
48685;SDS011;34485;51.536;3.816;2023-08-17T07:15:59;2.72;;;1.88;;
48685;SDS011;34485;51.536;3.816;2023-08-17T07:18:24;4.60;;;1.87;;
48685;SDS011;34485;51.536;3.816;2023-08-17T07:20:50;3.93;;;3.00;;
48685;SDS011;34485;51.536;3.816;2023-08-17T07:23:16;5.47;;;2.70;;
48685;SDS011;34485;51.536;3.816;2023-08-17T07:25:41;4.33;;;1.70;;
48685;SDS011;34485;51.536;3.816;2023-08-17T07:28:07;2.80;;;1.50;;
48685;SDS011;34485;51.536;3.816;2023-08-17T07:30:32;3.50;;;2.53;;
48685;SDS011;34485;51.536;3.816;2023-08-17T07:32:58;3.83;;;2.08;;
48685;SDS011;34485;51.536;3.816;2023-08-17T07:35:24;3.20;;;2.37;;
48685;SDS011;34485;51.536;3.816;2023-08-17T07:37:49;3.22;;;1.70;;
48685;SDS011;34485;51.536;3.816;2023-08-17T07:40:15;2.33;;;1.87;;
48685;SDS011;34485;51.536;3.816;2023-08-17T07:42:41;6.50;;;1.92;;
48685;SDS011;34485;51.536;3.816;2023-08-17T07:45:06;4.53;;;1.70;;
48685;SDS011;34485;51.536;3.816;2023-08-17T07:47:35;4.45;;;1.95;;
48685;SDS011;34485;51.536;3.816;2023-08-17T07:50:02;3.40;;;2.35;;
48685;SDS011;34485;51.536;3.816;2023-08-17T07:52:29;3.57;;;1.93;;
48685;SDS011;34485;51.536;3.816;2023-08-17T07:54:54;3.78;;;2.45;;
48685;SDS011;34485;51.536;3.816;2023-08-17T07:57:20;2.17;;;1.93;;
48685;SDS011;34485;51.536;3.816;2023-08-17T07:59:46;3.28;;;1.98;;
48685;SDS011;34485;51.536;3.816;2023-08-17T08:02:11;3.10;;;2.10;;
48685;SDS011;34485;51.536;3.816;2023-08-17T08:04:37;3.15;;;2.65;;
48685;SDS011;34485;51.536;3.816;2023-08-17T08:07:02;4.50;;;2.40;;
48685;SDS011;34485;51.536;3.816;2023-08-17T08:09:28;5.50;;;2.63;;
48685;SDS011;34485;51.536;3.816;2023-08-17T08:11:54;2.15;;;2.05;;
48685;SDS011;34485;51.536;3.816;2023-08-17T08:14:19;6.90;;;2.40;;
48685;SDS011;34485;51.536;3.816;2023-08-17T08:16:45;3.72;;;2.13;;
48685;SDS011;34485;51.536;3.816;2023-08-17T08:19:12;5.20;;;1.80;;
48685;SDS011;34485;51.536;3.816;2023-08-17T08:21:37;10.20;;;2.47;;
48685;SDS011;34485;51.536;3.816;2023-08-17T08:24:03;4.77;;;2.00;;
48685;SDS011;34485;51.536;3.816;2023-08-17T08:26:29;1.92;;;1.70;;
48685;SDS011;34485;51.536;3.816;2023-08-17T08:28:54;4.17;;;1.67;;
48685;SDS011;34485;51.536;3.816;2023-08-17T08:31:20;3.40;;;2.10;;
48685;SDS011;34485;51.536;3.816;2023-08-17T08:33:45;8.30;;;1.95;;
48685;SDS011;34485;51.536;3.816;2023-08-17T08:36:11;3.90;;;2.17;;
48685;SDS011;34485;51.536;3.816;2023-08-17T08:38:37;10.43;;;2.30;;
48685;SDS011;34485;51.536;3.816;2023-08-17T08:41:02;3.93;;;2.17;;
48685;SDS011;34485;51.536;3.816;2023-08-17T08:43:28;7.82;;;2.05;;
48685;SDS011;34485;51.536;3.816;2023-08-17T08:45:54;4.37;;;2.33;;
48685;SDS011;34485;51.536;3.816;2023-08-17T08:48:21;5.82;;;2.30;;
48685;SDS011;34485;51.536;3.816;2023-08-17T08:50:48;4.18;;;2.13;;
48685;SDS011;34485;51.536;3.816;2023-08-17T08:53:15;3.97;;;2.53;;
48685;SDS011;34485;51.536;3.816;2023-08-17T08:55:49;5.03;;;2.40;;
48685;SDS011;34485;51.536;3.816;2023-08-17T08:58:29;7.43;;;2.27;;
48685;SDS011;34485;51.536;3.816;2023-08-17T09:00:57;6.95;;;2.50;;
48685;SDS011;34485;51.536;3.816;2023-08-17T09:03:23;4.18;;;2.50;;
48685;SDS011;34485;51.536;3.816;2023-08-17T09:05:50;7.50;;;2.30;;
48685;SDS011;34485;51.536;3.816;2023-08-17T09:08:20;5.13;;;2.63;;
48685;SDS011;34485;51.536;3.816;2023-08-17T09:10:47;3.80;;;2.40;;
48685;SDS011;34485;51.536;3.816;2023-08-17T09:13:13;4.82;;;2.38;;
48685;SDS011;34485;51.536;3.816;2023-08-17T09:15:39;4.50;;;2.40;;
48685;SDS011;34485;51.536;3.816;2023-08-17T09:18:05;3.83;;;2.50;;
48685;SDS011;34485;51.536;3.816;2023-08-17T09:20:40;3.55;;;2.70;;
48685;SDS011;34485;51.536;3.816;2023-08-17T09:23:10;4.10;;;2.30;;
48685;SDS011;34485;51.536;3.816;2023-08-17T09:25:44;3.45;;;2.50;;
48685;SDS011;34485;51.536;3.816;2023-08-17T09:28:11;8.53;;;2.23;;
48685;SDS011;34485;51.536;3.816;2023-08-17T09:31:02;4.40;;;2.85;;
48685;SDS011;34485;51.536;3.816;2023-08-17T09:33:30;3.28;;;2.83;;
48685;SDS011;34485;51.536;3.816;2023-08-17T09:35:58;7.50;;;2.42;;
48685;SDS011;34485;51.536;3.816;2023-08-17T09:38:25;4.85;;;3.05;;
48685;SDS011;34485;51.536;3.816;2023-08-17T09:40:51;3.23;;;2.50;;
48685;SDS011;34485;51.536;3.816;2023-08-17T09:43:18;5.75;;;3.05;;
48685;SDS011;34485;51.536;3.816;2023-08-17T09:45:45;4.53;;;2.50;;
48685;SDS011;34485;51.536;3.816;2023-08-17T09:48:14;4.78;;;2.70;;
48685;SDS011;34485;51.536;3.816;2023-08-17T09:50:44;6.05;;;3.20;;
48685;SDS011;34485;51.536;3.816;2023-08-17T09:53:14;5.47;;;2.93;;
48685;SDS011;34485;51.536;3.816;2023-08-17T09:55:41;4.50;;;2.90;;
48685;SDS011;34485;51.536;3.816;2023-08-17T09:58:07;3.08;;;2.50;;
48685;SDS011;34485;51.536;3.816;2023-08-17T10:00:33;4.70;;;2.63;;
48685;SDS011;34485;51.536;3.816;2023-08-17T10:03:01;4.50;;;2.50;;
48685;SDS011;34485;51.536;3.816;2023-08-17T10:05:28;4.33;;;2.53;;
48685;SDS011;34485;51.536;3.816;2023-08-17T10:07:56;4.20;;;3.05;;
48685;SDS011;34485;51.536;3.816;2023-08-17T10:10:25;3.33;;;2.88;;
48685;SDS011;34485;51.536;3.816;2023-08-17T10:15:37;7.45;;;2.70;;
48685;SDS011;34485;51.536;3.816;2023-08-17T10:18:15;5.07;;;2.87;;
48685;SDS011;34485;51.536;3.816;2023-08-17T10:20:42;7.13;;;2.85;;
48685;SDS011;34485;51.536;3.816;2023-08-17T10:23:15;4.50;;;3.00;;
48685;SDS011;34485;51.536;3.816;2023-08-17T10:25:44;5.53;;;3.60;;
48685;SDS011;34485;51.536;3.816;2023-08-17T10:28:10;5.47;;;2.85;;
48685;SDS011;34485;51.536;3.816;2023-08-17T10:30:37;5.40;;;2.93;;
48685;SDS011;34485;51.536;3.816;2023-08-17T10:33:04;4.63;;;2.50;;
48685;SDS011;34485;51.536;3.816;2023-08-17T10:35:30;7.40;;;3.13;;
48685;SDS011;34485;51.536;3.816;2023-08-17T10:37:57;3.85;;;2.53;;
48685;SDS011;34485;51.536;3.816;2023-08-17T10:40:27;5.30;;;3.28;;
48685;SDS011;34485;51.536;3.816;2023-08-17T10:42:54;6.93;;;3.10;;
48685;SDS011;34485;51.536;3.816;2023-08-17T10:45:30;3.80;;;2.83;;
48685;SDS011;34485;51.536;3.816;2023-08-17T10:50:26;6.18;;;2.88;;
48685;SDS011;34485;51.536;3.816;2023-08-17T10:52:53;6.03;;;3.50;;
48685;SDS011;34485;51.536;3.816;2023-08-17T10:55:34;6.03;;;2.90;;
48685;SDS011;34485;51.536;3.816;2023-08-17T10:58:07;3.75;;;2.75;;
48685;SDS011;34485;51.536;3.816;2023-08-17T11:00:34;8.30;;;3.80;;
48685;SDS011;34485;51.536;3.816;2023-08-17T11:03:03;7.97;;;2.93;;
48685;SDS011;34485;51.536;3.816;2023-08-17T11:05:45;7.85;;;3.55;;
48685;SDS011;34485;51.536;3.816;2023-08-17T11:08:28;3.50;;;3.20;;
48685;SDS011;34485;51.536;3.816;2023-08-17T11:11:12;4.65;;;3.35;;
48685;SDS011;34485;51.536;3.816;2023-08-17T11:13:42;9.10;;;4.25;;
48685;SDS011;34485;51.536;3.816;2023-08-17T11:16:10;7.97;;;3.27;;
48685;SDS011;34485;51.536;3.816;2023-08-17T11:18:36;5.45;;;3.85;;
48685;SDS011;34485;51.536;3.816;2023-08-17T11:21:03;8.93;;;3.85;;
48685;SDS011;34485;51.536;3.816;2023-08-17T11:23:31;6.00;;;3.72;;
48685;SDS011;34485;51.536;3.816;2023-08-17T11:25:57;4.60;;;3.30;;
48685;SDS011;34485;51.536;3.816;2023-08-17T11:28:24;3.90;;;3.20;;
48685;SDS011;34485;51.536;3.816;2023-08-17T11:30:59;9.20;;;3.22;;
48685;SDS011;34485;51.536;3.816;2023-08-17T11:33:26;6.00;;;3.38;;
48685;SDS011;34485;51.536;3.816;2023-08-17T11:35:59;4.88;;;2.90;;
48685;SDS011;34485;51.536;3.816;2023-08-17T11:38:29;7.93;;;3.28;;
48685;SDS011;34485;51.536;3.816;2023-08-17T11:41:03;5.20;;;2.80;;
48685;SDS011;34485;51.536;3.816;2023-08-17T11:43:29;3.45;;;3.15;;
48685;SDS011;34485;51.536;3.816;2023-08-17T11:45:56;5.80;;;3.58;;
48685;SDS011;34485;51.536;3.816;2023-08-17T11:48:25;6.18;;;3.70;;
48685;SDS011;34485;51.536;3.816;2023-08-17T11:50:52;6.28;;;3.60;;
48685;SDS011;34485;51.536;3.816;2023-08-17T11:53:17;5.60;;;3.30;;
48685;SDS011;34485;51.536;3.816;2023-08-17T11:55:43;8.98;;;3.95;;
48685;SDS011;34485;51.536;3.816;2023-08-17T11:58:09;3.93;;;3.23;;
48685;SDS011;34485;51.536;3.816;2023-08-17T12:00:35;5.93;;;3.20;;
48685;SDS011;34485;51.536;3.816;2023-08-17T12:03:04;7.13;;;3.77;;
48685;SDS011;34485;51.536;3.816;2023-08-17T12:05:30;9.52;;;3.60;;
48685;SDS011;34485;51.536;3.816;2023-08-17T12:07:57;8.52;;;4.63;;
48685;SDS011;34485;51.536;3.816;2023-08-17T12:10:23;5.50;;;3.40;;
48685;SDS011;34485;51.536;3.816;2023-08-17T12:12:49;4.33;;;3.93;;
48685;SDS011;34485;51.536;3.816;2023-08-17T12:15:18;5.28;;;3.60;;
48685;SDS011;34485;51.536;3.816;2023-08-17T12:17:47;6.35;;;3.35;;
48685;SDS011;34485;51.536;3.816;2023-08-17T12:20:17;5.27;;;3.80;;
48685;SDS011;34485;51.536;3.816;2023-08-17T12:22:44;7.43;;;3.53;;
48685;SDS011;34485;51.536;3.816;2023-08-17T12:25:13;5.97;;;4.40;;
48685;SDS011;34485;51.536;3.816;2023-08-17T12:27:40;5.97;;;4.00;;
48685;SDS011;34485;51.536;3.816;2023-08-17T12:30:24;6.70;;;3.70;;
48685;SDS011;34485;51.536;3.816;2023-08-17T12:33:01;5.72;;;3.80;;
48685;SDS011;34485;51.536;3.816;2023-08-17T12:35:26;7.18;;;3.70;;
48685;SDS011;34485;51.536;3.816;2023-08-17T12:37:52;5.77;;;3.80;;
48685;SDS011;34485;51.536;3.816;2023-08-17T12:40:18;6.50;;;4.30;;
48685;SDS011;34485;51.536;3.816;2023-08-17T12:42:44;6.40;;;4.40;;
48685;SDS011;34485;51.536;3.816;2023-08-17T12:45:10;5.70;;;4.10;;
48685;SDS011;34485;51.536;3.816;2023-08-17T12:47:36;4.97;;;4.03;;
48685;SDS011;34485;51.536;3.816;2023-08-17T12:50:03;5.75;;;4.20;;
48685;SDS011;34485;51.536;3.816;2023-08-17T12:52:29;9.73;;;4.57;;
48685;SDS011;34485;51.536;3.816;2023-08-17T12:54:54;6.95;;;4.60;;
48685;SDS011;34485;51.536;3.816;2023-08-17T12:57:20;5.13;;;4.23;;
48685;SDS011;34485;51.536;3.816;2023-08-17T12:59:46;9.73;;;4.50;;
48685;SDS011;34485;51.536;3.816;2023-08-17T13:02:11;6.40;;;4.37;;
48685;SDS011;34485;51.536;3.816;2023-08-17T13:04:37;6.25;;;4.35;;
48685;SDS011;34485;51.536;3.816;2023-08-17T13:07:03;8.00;;;4.60;;
48685;SDS011;34485;51.536;3.816;2023-08-17T13:09:28;8.90;;;4.75;;
48685;SDS011;34485;51.536;3.816;2023-08-17T13:11:54;7.00;;;4.17;;
48685;SDS011;34485;51.536;3.816;2023-08-17T13:14:20;11.90;;;5.33;;
48685;SDS011;34485;51.536;3.816;2023-08-17T13:16:47;8.10;;;4.67;;
48685;SDS011;34485;51.536;3.816;2023-08-17T13:19:14;5.50;;;4.30;;
48685;SDS011;34485;51.536;3.816;2023-08-17T13:21:39;9.73;;;4.90;;
48685;SDS011;34485;51.536;3.816;2023-08-17T13:24:05;5.00;;;4.13;;
48685;SDS011;34485;51.536;3.816;2023-08-17T13:26:31;6.87;;;5.03;;
48685;SDS011;34485;51.536;3.816;2023-08-17T13:28:57;6.53;;;5.10;;
48685;SDS011;34485;51.536;3.816;2023-08-17T13:31:22;7.07;;;4.88;;
48685;SDS011;34485;51.536;3.816;2023-08-17T13:33:48;8.37;;;4.93;;
48685;SDS011;34485;51.536;3.816;2023-08-17T13:36:15;12.80;;;5.10;;
48685;SDS011;34485;51.536;3.816;2023-08-17T13:38:40;6.60;;;5.20;;
48685;SDS011;34485;51.536;3.816;2023-08-17T13:41:06;6.57;;;4.30;;
48685;SDS011;34485;51.536;3.816;2023-08-17T13:43:32;7.90;;;5.30;;
48685;SDS011;34485;51.536;3.816;2023-08-17T13:45:59;8.32;;;5.28;;
48685;SDS011;34485;51.536;3.816;2023-08-17T13:48:24;9.93;;;5.27;;
48685;SDS011;34485;51.536;3.816;2023-08-17T13:50:50;8.55;;;4.93;;
48685;SDS011;34485;51.536;3.816;2023-08-17T13:53:16;6.80;;;5.63;;
48685;SDS011;34485;51.536;3.816;2023-08-17T13:55:41;7.78;;;5.47;;
48685;SDS011;34485;51.536;3.816;2023-08-17T13:58:07;9.43;;;5.87;;
48685;SDS011;34485;51.536;3.816;2023-08-17T14:00:35;10.15;;;6.22;;
48685;SDS011;34485;51.536;3.816;2023-08-17T14:03:01;10.90;;;5.90;;
48685;SDS011;34485;51.536;3.816;2023-08-17T14:05:27;8.82;;;5.68;;
48685;SDS011;34485;51.536;3.816;2023-08-17T14:07:52;7.60;;;5.03;;
48685;SDS011;34485;51.536;3.816;2023-08-17T14:10:18;13.03;;;6.50;;
48685;SDS011;34485;51.536;3.816;2023-08-17T14:12:43;10.65;;;5.95;;
48685;SDS011;34485;51.536;3.816;2023-08-17T14:15:09;9.53;;;5.67;;
48685;SDS011;34485;51.536;3.816;2023-08-17T14:17:35;8.25;;;6.03;;
48685;SDS011;34485;51.536;3.816;2023-08-17T14:20:01;11.67;;;6.33;;
48685;SDS011;34485;51.536;3.816;2023-08-17T14:22:29;8.20;;;6.28;;
48685;SDS011;34485;51.536;3.816;2023-08-17T14:24:55;9.80;;;6.32;;
48685;SDS011;34485;51.536;3.816;2023-08-17T14:27:20;8.60;;;6.00;;
48685;SDS011;34485;51.536;3.816;2023-08-17T14:29:46;10.85;;;6.50;;
48685;SDS011;34485;51.536;3.816;2023-08-17T14:32:12;11.60;;;5.80;;
48685;SDS011;34485;51.536;3.816;2023-08-17T14:34:37;10.13;;;6.15;;
48685;SDS011;34485;51.536;3.816;2023-08-17T14:37:03;11.40;;;6.30;;
48685;SDS011;34485;51.536;3.816;2023-08-17T14:39:28;13.97;;;7.43;;
48685;SDS011;34485;51.536;3.816;2023-08-17T14:41:54;14.98;;;6.32;;
48685;SDS011;34485;51.536;3.816;2023-08-17T14:44:20;9.30;;;6.50;;
48685;SDS011;34485;51.536;3.816;2023-08-17T14:46:46;14.15;;;6.93;;
48685;SDS011;34485;51.536;3.816;2023-08-17T14:49:11;19.43;;;6.97;;
48685;SDS011;34485;51.536;3.816;2023-08-17T14:51:38;9.77;;;6.97;;
48685;SDS011;34485;51.536;3.816;2023-08-17T14:54:04;11.95;;;6.38;;
48685;SDS011;34485;51.536;3.816;2023-08-17T14:56:31;10.30;;;6.57;;